Iblea — IBFK — position and weather

sailwx.info

Track history (hours):
 
Tides and Currents Weather Stations Pressure Air Temp Water Temp Dewpoint Dewpoint Depression Visibility Wind Speed Wind Dir Waves Ship Positions

Iblea

Last reported at 2016-Jun-24 19:23 UTC. Time now 2016-Jun-25 07:09 UTC.
Position N 43°21' E 004°56'.

Length 176 m; draft 11.3 m.

Type: Ship (hazmat cat B). MMSI: 247087700.

Date/timePositionNaut miles runAvg speedWind from/ knotsBaromVisibWave heightAir tempDewpointWater temp
2016-Jun-24 19:23N 43°21' E 004°56'0 0.0
2016-Jun-24 12:23N 43°21' E 004°56'0 0.0
2016-Jun-24 10:26N 43°21' E 004°56'0 0.1
2016-Jun-24 09:14N 43°21' E 004°56'0 0.0
2016-Jun-24 02:32N 43°21' E 004°56'0 0.0
2016-Jun-24 01:32N 43°21' E 004°56'0 0.0
2016-Jun-24 00:23N 43°21' E 004°56'0 0.0
2016-Jun-23 23:29N 43°21' E 004°56'0 0.0
2016-Jun-23 20:29N 43°21' E 004°56'0 0.0
2016-Jun-23 17:20N 43°21' E 004°56'0 0.0
2016-Jun-23 12:17N 43°21' E 004°56'0 0.0
2016-Jun-23 11:26N 43°21' E 004°56'0 0.1
2016-Jun-23 08:32N 43°21' E 004°56'0 0.0
2016-Jun-23 07:32N 43°21' E 004°56'16 8.1
2016-Jun-23 05:34N 43°07' E 005°07'1312.6
2016-Jun-23 04:34N 42°55' E 005°14'5612.9
2016-Jun-23 00:15N 42°07' E 005°51'13312.5
2016-Jun-22 13:32N 40°10' E 007°15'1211.6
2016-Jun-22 12:30N 39°59' E 007°23'9612.0
2016-Jun-22 04:33N 38°39' E 008°31'1312.3
2016-Jun-22 03:29N 38°33' E 008°46'1112.1
2016-Jun-22 02:33N 38°28' E 008°59'1212.1
2016-Jun-22 01:33N 38°23' E 009°13'  
2016-Jun-18 22:06N 37°40' E 011°10'1 0.4
2016-Jun-18 20:32N 37°39' E 011°11'27 3.7
2016-Jun-18 13:10N 37°19' E 011°33'712.2
2016-Jun-18 12:34N 37°15' E 011°41'1211.8
2016-Jun-18 11:31N 37°10' E 011°55'1211.4
2016-Jun-18 10:27N 37°05' E 012°09'5811.5
2016-Jun-18 05:24N 36°40' E 013°15'1010.9
2016-Jun-18 04:29N 36°36' E 013°26'1111.1
2016-Jun-18 03:30N 36°30' E 013°37'1111.2
2016-Jun-18 02:34N 36°26' E 013°49'1111.2
2016-Jun-18 01:34N 36°21' E 014°02'1111.2
2016-Jun-18 00:34N 36°16' E 014°14'1111.1
2016-Jun-17 23:33N 36°11' E 014°27'1111.1
2016-Jun-17 22:33N 36°04' E 014°37'1111.3
2016-Jun-17 21:33N 35°56' E 014°46'2 2.1
2016-Jun-17 20:29N 35°54' E 014°48'0 0.0
2016-Jun-17 19:32N 35°54' E 014°48'0 0.0
2016-Jun-17 18:32N 35°54' E 014°48'0 0.0
2016-Jun-17 17:32N 35°54' E 014°48'0 0.0
2016-Jun-17 16:32N 35°54' E 014°48'0 0.0
2016-Jun-17 15:33N 35°54' E 014°48'1 0.6
2016-Jun-17 14:33N 35°54' E 014°48'3 3.3
2016-Jun-17 13:33N 35°57' E 014°49'0 0.1
2016-Jun-17 12:33N 35°57' E 014°49'0 0.1
2016-Jun-17 11:33N 35°57' E 014°49'0 0.1
2016-Jun-17 10:30N 35°57' E 014°50'0 0.0
2016-Jun-17 09:30N 35°57' E 014°50'0 0.0
2016-Jun-17 08:30N 35°57' E 014°50'0 0.0
2016-Jun-17 07:33N 35°57' E 014°50'3 2.9
2016-Jun-17 06:33N 35°59' E 014°47'1212.1
2016-Jun-17 05:33N 36°07' E 014°35'1212.0
2016-Jun-17 04:33N 36°13' E 014°22'1211.9
2016-Jun-17 03:33N 36°18' E 014°09'1211.9
2016-Jun-17 02:33N 36°22' E 013°55'1212.1
2016-Jun-17 01:33N 36°27' E 013°41'1212.4
2016-Jun-17 00:33N 36°32' E 013°27'149 5.7
2016-Jun-15 22:32N 37°46' E 010°45'2 1.4
2016-Jun-15 21:12N 37°46' E 010°47'1 1.0
2016-Jun-15 20:33N 37°46' E 010°48'1 0.9
2016-Jun-15 19:33N 37°45' E 010°48'1 0.8
2016-Jun-15 18:33N 37°44' E 010°49'1 1.2
2016-Jun-15 17:33N 37°44' E 010°50'1 1.4
2016-Jun-15 16:33N 37°43' E 010°51'1 1.4
2016-Jun-15 15:33N 37°42' E 010°52'1 1.3
2016-Jun-15 14:33N 37°41' E 010°54'1 1.4
2016-Jun-15 13:33N 37°40' E 010°55'1 1.3
2016-Jun-15 12:33N 37°39' E 010°56'2 1.1
2016-Jun-15 10:33N 37°38' E 010°59'  
Track history (hours):
 
Tides and Currents Weather Stations Pressure Air Temp Water Temp Dewpoint Dewpoint Depression Visibility Wind Speed Wind Dir Waves Ship Positions

Iblea

Last reported at 2016-Jun-24 19:23 UTC. Time now 2016-Jun-25 07:09 UTC.
Position N 43°21' E 004°56'.

Length 176 m; draft 11.3 m.

Type: Ship (hazmat cat B). MMSI: 247087700.

Date/timePositionNaut miles runAvg speedWind from/ knotsBaromVisibWave heightAir tempDewpointWater temp
2016-Jun-24 19:23N 43°21' E 004°56'0 0.0
2016-Jun-24 12:23N 43°21' E 004°56'0 0.0
2016-Jun-24 10:26N 43°21' E 004°56'0 0.1
2016-Jun-24 09:14N 43°21' E 004°56'0 0.0
2016-Jun-24 02:32N 43°21' E 004°56'0 0.0
2016-Jun-24 01:32N 43°21' E 004°56'0 0.0
2016-Jun-24 00:23N 43°21' E 004°56'0 0.0
2016-Jun-23 23:29N 43°21' E 004°56'0 0.0
2016-Jun-23 20:29N 43°21' E 004°56'0 0.0
2016-Jun-23 17:20N 43°21' E 004°56'0 0.0
2016-Jun-23 12:17N 43°21' E 004°56'0 0.0
2016-Jun-23 11:26N 43°21' E 004°56'0 0.1
2016-Jun-23 08:32N 43°21' E 004°56'0 0.0
2016-Jun-23 07:32N 43°21' E 004°56'16 8.1
2016-Jun-23 05:34N 43°07' E 005°07'1312.6
2016-Jun-23 04:34N 42°55' E 005°14'5612.9
2016-Jun-23 00:15N 42°07' E 005°51'13312.5
2016-Jun-22 13:32N 40°10' E 007°15'1211.6
2016-Jun-22 12:30N 39°59' E 007°23'9612.0
2016-Jun-22 04:33N 38°39' E 008°31'1312.3
2016-Jun-22 03:29N 38°33' E 008°46'1112.1
2016-Jun-22 02:33N 38°28' E 008°59'1212.1
2016-Jun-22 01:33N 38°23' E 009°13'  
2016-Jun-18 22:06N 37°40' E 011°10'1 0.4
2016-Jun-18 20:32N 37°39' E 011°11'27 3.7
2016-Jun-18 13:10N 37°19' E 011°33'712.2
2016-Jun-18 12:34N 37°15' E 011°41'1211.8
2016-Jun-18 11:31N 37°10' E 011°55'1211.4
2016-Jun-18 10:27N 37°05' E 012°09'5811.5
2016-Jun-18 05:24N 36°40' E 013°15'1010.9
2016-Jun-18 04:29N 36°36' E 013°26'1111.1
2016-Jun-18 03:30N 36°30' E 013°37'1111.2
2016-Jun-18 02:34N 36°26' E 013°49'1111.2
2016-Jun-18 01:34N 36°21' E 014°02'1111.2
2016-Jun-18 00:34N 36°16' E 014°14'1111.1
2016-Jun-17 23:33N 36°11' E 014°27'1111.1
2016-Jun-17 22:33N 36°04' E 014°37'1111.3
2016-Jun-17 21:33N 35°56' E 014°46'2 2.1
2016-Jun-17 20:29N 35°54' E 014°48'0 0.0
2016-Jun-17 19:32N 35°54' E 014°48'0 0.0
2016-Jun-17 18:32N 35°54' E 014°48'0 0.0
2016-Jun-17 17:32N 35°54' E 014°48'0 0.0
2016-Jun-17 16:32N 35°54' E 014°48'0 0.0
2016-Jun-17 15:33N 35°54' E 014°48'1 0.6
2016-Jun-17 14:33N 35°54' E 014°48'3 3.3
2016-Jun-17 13:33N 35°57' E 014°49'0 0.1
2016-Jun-17 12:33N 35°57' E 014°49'0 0.1
2016-Jun-17 11:33N 35°57' E 014°49'0 0.1
2016-Jun-17 10:30N 35°57' E 014°50'0 0.0
2016-Jun-17 09:30N 35°57' E 014°50'0 0.0
2016-Jun-17 08:30N 35°57' E 014°50'0 0.0
2016-Jun-17 07:33N 35°57' E 014°50'3 2.9
2016-Jun-17 06:33N 35°59' E 014°47'1212.1
2016-Jun-17 05:33N 36°07' E 014°35'1212.0
2016-Jun-17 04:33N 36°13' E 014°22'1211.9
2016-Jun-17 03:33N 36°18' E 014°09'1211.9
2016-Jun-17 02:33N 36°22' E 013°55'1212.1
2016-Jun-17 01:33N 36°27' E 013°41'1212.4
2016-Jun-17 00:33N 36°32' E 013°27'149 5.7
2016-Jun-15 22:32N 37°46' E 010°45'2 1.4
2016-Jun-15 21:12N 37°46' E 010°47'1 1.0
2016-Jun-15 20:33N 37°46' E 010°48'1 0.9
2016-Jun-15 19:33N 37°45' E 010°48'1 0.8
2016-Jun-15 18:33N 37°44' E 010°49'1 1.2
2016-Jun-15 17:33N 37°44' E 010°50'1 1.4
2016-Jun-15 16:33N 37°43' E 010°51'1 1.4
2016-Jun-15 15:33N 37°42' E 010°52'1 1.3
2016-Jun-15 14:33N 37°41' E 010°54'1 1.4
2016-Jun-15 13:33N 37°40' E 010°55'1 1.3
2016-Jun-15 12:33N 37°39' E 010°56'2 1.1
2016-Jun-15 10:33N 37°38' E 010°59'  

Dump ship's entire track history